createdAt,value
2018-09-30T00:01:42.028Z,58.00
2018-09-30T00:04:09.507Z,58.30
2018-09-30T00:06:36.905Z,59.30
2018-09-30T00:09:05.896Z,59.20
2018-09-30T00:11:33.277Z,58.00
2018-09-30T00:14:00.717Z,58.40
2018-09-30T00:16:28.146Z,59.00
2018-09-30T00:18:55.570Z,57.10
2018-09-30T00:21:23.293Z,59.50
2018-09-30T00:23:56.490Z,59.40
2018-09-30T00:26:29.473Z,58.20
2018-09-30T00:28:56.930Z,58.40
2018-09-30T00:31:24.390Z,58.00
2018-09-30T00:33:57.300Z,59.00
2018-09-30T00:36:24.742Z,59.40
2018-09-30T00:38:52.215Z,59.00
2018-09-30T00:41:19.716Z,60.40
2018-09-30T00:43:47.097Z,59.80
2018-09-30T00:46:14.535Z,59.10
2018-09-30T00:48:41.934Z,60.20
2018-09-30T00:51:09.318Z,60.00
2018-09-30T00:53:36.740Z,59.50
2018-09-30T00:56:04.185Z,59.80
2018-09-30T00:58:31.570Z,59.90
2018-09-30T01:00:58.932Z,60.20
2018-09-30T01:03:26.490Z,60.60
2018-09-30T01:05:53.985Z,60.90
2018-09-30T01:08:21.492Z,60.60
2018-09-30T01:10:49.072Z,60.50
2018-09-30T01:13:16.524Z,60.50
2018-09-30T01:15:43.954Z,61.20
2018-09-30T01:18:11.341Z,61.10
2018-09-30T01:20:38.802Z,61.00
2018-09-30T01:23:06.208Z,61.20
2018-09-30T01:25:33.647Z,61.20
2018-09-30T01:28:01.083Z,61.20
2018-09-30T01:30:28.598Z,61.30
2018-09-30T01:32:56.040Z,60.70
2018-09-30T01:35:23.506Z,60.30
2018-09-30T01:37:50.988Z,60.90
2018-09-30T01:40:18.461Z,61.70
2018-09-30T01:42:46.146Z,61.80
2018-09-30T01:45:13.514Z,61.60
2018-09-30T01:47:40.856Z,61.70
2018-09-30T01:50:08.320Z,60.80
2018-09-30T01:52:52.334Z,61.20
2018-09-30T01:55:19.825Z,61.80
2018-09-30T01:57:47.230Z,62.30
2018-09-30T02:00:14.814Z,62.60
2018-09-30T02:02:42.283Z,62.70
2018-09-30T02:05:09.697Z,62.60
2018-09-30T02:07:37.032Z,63.50
2018-09-30T02:10:04.537Z,63.20
2018-09-30T02:12:32.001Z,63.20
2018-09-30T02:14:59.406Z,62.80
2018-09-30T02:17:26.882Z,63.10
2018-09-30T02:19:54.482Z,62.90
2018-09-30T02:22:21.932Z,63.40
2018-09-30T02:24:49.294Z,63.50
2018-09-30T02:27:16.772Z,63.40
2018-09-30T02:29:44.210Z,63.70
2018-09-30T02:32:18.821Z,63.60
2018-09-30T02:34:46.180Z,63.70
2018-09-30T02:37:13.564Z,64.40
2018-09-30T02:39:41.037Z,63.70
2018-09-30T02:42:09.022Z,63.30
2018-09-30T02:44:36.449Z,63.70
2018-09-30T02:47:03.895Z,63.80
2018-09-30T02:49:31.329Z,64.20
2018-09-30T02:51:58.767Z,64.30
2018-09-30T02:54:26.158Z,64.30
2018-09-30T02:56:53.671Z,64.30
2018-09-30T02:59:21.282Z,64.30
2018-09-30T03:01:48.869Z,64.30
2018-09-30T03:04:16.409Z,64.20
2018-09-30T03:06:49.308Z,64.70
2018-09-30T03:09:17.857Z,64.40
2018-09-30T03:11:45.295Z,64.10
2018-09-30T03:14:14.066Z,64.90
2018-09-30T03:16:42.192Z,65.00
2018-09-30T03:19:09.605Z,65.10
2018-09-30T03:21:37.047Z,63.90
2018-09-30T03:24:04.444Z,64.50
2018-09-30T03:26:31.943Z,64.30
2018-09-30T03:28:59.431Z,64.30
2018-09-30T03:31:26.882Z,64.20
2018-09-30T03:33:54.260Z,64.80
2018-09-30T03:36:21.793Z,64.60
2018-09-30T03:38:49.377Z,64.80
2018-09-30T03:41:16.801Z,65.00
2018-09-30T03:43:44.196Z,65.80
2018-09-30T03:46:11.637Z,65.20
2018-09-30T03:48:39.032Z,64.80
2018-09-30T03:51:06.530Z,65.00
2018-09-30T03:53:33.945Z,65.00
2018-09-30T03:56:01.284Z,65.10
2018-09-30T03:58:28.751Z,65.00
2018-09-30T04:00:56.214Z,65.10
2018-09-30T04:03:23.686Z,64.60
2018-09-30T04:05:51.101Z,64.10
2018-09-30T04:08:18.527Z,64.60
2018-09-30T04:10:46.039Z,64.50
2018-09-30T04:13:13.545Z,64.30
2018-09-30T04:15:41.137Z,64.60
2018-09-30T04:18:08.598Z,64.30
2018-09-30T04:20:35.990Z,63.60
2018-09-30T04:23:03.392Z,62.00
2018-09-30T04:25:30.828Z,62.40
2018-09-30T04:27:58.248Z,62.70
2018-09-30T04:30:25.731Z,63.70
2018-09-30T04:32:53.156Z,64.50
2018-09-30T04:35:20.641Z,64.70
2018-09-30T04:37:48.121Z,64.70
2018-09-30T04:40:15.521Z,65.00
2018-09-30T04:42:42.991Z,64.80
2018-09-30T04:45:10.518Z,65.10
2018-09-30T04:47:38.008Z,66.00
2018-09-30T04:50:05.566Z,65.90
2018-09-30T04:52:32.998Z,66.60
2018-09-30T04:55:00.424Z,66.50
2018-09-30T04:57:27.796Z,66.50
2018-09-30T04:59:55.179Z,66.40
2018-09-30T05:02:22.665Z,66.40
2018-09-30T05:04:50.078Z,66.20
2018-09-30T05:07:17.460Z,66.30
2018-09-30T05:09:44.909Z,66.20
2018-09-30T05:12:12.273Z,65.60
2018-09-30T05:14:39.712Z,66.10
2018-09-30T05:17:07.183Z,65.80
2018-09-30T05:19:34.600Z,66.00
2018-09-30T05:22:02.002Z,66.70
2018-09-30T05:24:29.415Z,66.70
2018-09-30T05:26:56.936Z,68.10
2018-09-30T05:29:24.401Z,67.90
2018-09-30T05:31:51.864Z,66.60
2018-09-30T05:34:19.220Z,67.50
2018-09-30T05:36:46.724Z,67.50
2018-09-30T05:39:14.242Z,67.80
2018-09-30T05:41:41.679Z,68.50
2018-09-30T05:44:09.296Z,68.50
2018-09-30T05:46:36.834Z,68.50
2018-09-30T05:49:04.498Z,68.70
2018-09-30T05:51:32.050Z,69.10
2018-09-30T05:53:59.507Z,69.30
2018-09-30T05:56:26.920Z,68.80
2018-09-30T05:58:54.594Z,68.70
2018-09-30T06:01:22.186Z,68.60
2018-09-30T06:03:49.853Z,68.70
2018-09-30T06:06:17.288Z,68.90
2018-09-30T06:08:44.644Z,69.50
2018-09-30T06:11:12.089Z,68.90
2018-09-30T06:13:39.520Z,69.10
2018-09-30T06:16:07.024Z,69.10
2018-09-30T06:18:34.363Z,69.50
2018-09-30T06:21:01.772Z,69.00
2018-09-30T06:23:29.193Z,68.80
2018-09-30T06:25:56.620Z,68.70
2018-09-30T06:28:24.066Z,69.60
2018-09-30T06:30:51.745Z,69.10
2018-09-30T06:33:19.255Z,68.80
2018-09-30T06:35:46.706Z,68.20
2018-09-30T06:38:14.075Z,68.30
2018-09-30T06:40:41.472Z,68.00
2018-09-30T06:43:08.971Z,67.90
2018-09-30T06:45:36.407Z,68.30
2018-09-30T06:48:03.842Z,69.00
2018-09-30T06:50:31.760Z,70.20
2018-09-30T06:52:59.349Z,70.80
2018-09-30T06:55:26.933Z,70.80
2018-09-30T06:57:54.312Z,71.40
2018-09-30T07:00:21.797Z,72.00
2018-09-30T07:02:49.248Z,71.90
2018-09-30T07:05:16.643Z,71.60
2018-09-30T07:07:44.107Z,71.70
2018-09-30T07:10:11.839Z,71.10
2018-09-30T07:12:39.305Z,70.60
2018-09-30T07:15:06.742Z,70.50
2018-09-30T07:17:34.182Z,71.20
2018-09-30T07:20:01.600Z,71.20
2018-09-30T07:22:28.985Z,69.20
2018-09-30T07:24:56.382Z,68.80
2018-09-30T07:27:23.843Z,68.80
2018-09-30T07:29:51.271Z,69.20
2018-09-30T07:32:18.650Z,69.20
2018-09-30T07:34:46.085Z,68.80
2018-09-30T07:37:13.459Z,70.10
2018-09-30T07:39:40.918Z,71.50
2018-09-30T07:42:08.326Z,70.70
2018-09-30T07:44:35.839Z,71.10
2018-09-30T07:47:03.270Z,67.90
2018-09-30T07:49:30.781Z,67.50
2018-09-30T07:51:58.232Z,67.90
2018-09-30T07:54:25.920Z,67.40
2018-09-30T07:56:53.338Z,67.30
2018-09-30T07:59:20.836Z,67.30
2018-09-30T08:01:48.295Z,67.60
2018-09-30T08:04:15.687Z,66.60
2018-09-30T08:06:43.110Z,67.20
2018-09-30T08:09:10.643Z,65.80
2018-09-30T08:11:37.974Z,66.00
2018-09-30T08:14:05.472Z,66.50
2018-09-30T08:16:33.081Z,67.00
2018-09-30T08:19:00.669Z,67.30
2018-09-30T08:21:28.108Z,66.60
2018-09-30T08:23:55.482Z,66.10
2018-09-30T08:26:22.920Z,65.70
2018-09-30T08:28:50.299Z,65.30
2018-09-30T08:31:17.705Z,65.90
2018-09-30T08:33:45.159Z,65.50
2018-09-30T08:36:12.563Z,65.90
2018-09-30T08:38:41.207Z,67.60
2018-09-30T08:41:10.674Z,65.90
2018-09-30T08:43:39.345Z,66.40
2018-09-30T08:46:07.188Z,69.20
2018-09-30T08:48:34.622Z,64.40
2018-09-30T08:51:02.021Z,64.20
2018-09-30T08:53:30.338Z,65.50
2018-09-30T08:55:58.036Z,64.80
2018-09-30T08:58:26.339Z,63.60
2018-09-30T09:00:53.780Z,63.40
2018-09-30T09:03:21.205Z,64.50
2018-09-30T09:05:48.606Z,61.90
2018-09-30T09:08:16.297Z,61.60
2018-09-30T09:10:43.860Z,62.00
2018-09-30T09:13:11.660Z,61.70
2018-09-30T09:15:39.157Z,59.60
2018-09-30T09:18:06.540Z,59.90
2018-09-30T09:20:33.994Z,60.90
2018-09-30T09:23:01.499Z,61.20
2018-09-30T09:25:29.006Z,61.20
2018-09-30T09:27:56.497Z,61.60
2018-09-30T09:30:23.877Z,61.60
2018-09-30T09:32:51.417Z,63.20
2018-09-30T09:35:18.866Z,60.30
2018-09-30T09:37:46.312Z,58.70
2018-09-30T09:40:13.729Z,57.60
2018-09-30T09:42:41.128Z,58.20
2018-09-30T09:45:08.502Z,57.90
2018-09-30T09:47:35.850Z,57.50
2018-09-30T09:50:03.376Z,57.00
2018-09-30T09:52:30.846Z,55.80
2018-09-30T09:54:58.281Z,55.80
2018-09-30T09:57:25.806Z,55.90
2018-09-30T09:59:53.146Z,56.10
2018-09-30T10:02:20.616Z,55.90
2018-09-30T10:04:48.051Z,54.10
2018-09-30T10:07:15.537Z,54.20
2018-09-30T10:09:43.003Z,54.80
2018-09-30T10:12:10.625Z,54.20
2018-09-30T10:14:37.981Z,55.40
2018-09-30T10:17:05.465Z,54.60
2018-09-30T10:19:33.054Z,54.00
2018-09-30T10:22:00.549Z,55.80
2018-09-30T10:24:28.368Z,54.10
2018-09-30T10:26:55.758Z,53.30
2018-09-30T10:29:23.260Z,52.60
2018-09-30T10:31:50.797Z,54.70
2018-09-30T10:34:18.279Z,53.60
2018-09-30T10:36:45.688Z,53.10
2018-09-30T10:39:13.366Z,53.20
2018-09-30T10:41:40.918Z,52.50
2018-09-30T10:44:08.350Z,52.90
2018-09-30T10:46:35.997Z,53.80
2018-09-30T10:49:03.519Z,52.50
2018-09-30T10:51:30.894Z,52.00
2018-09-30T10:53:58.761Z,52.70
2018-09-30T10:56:26.180Z,52.90
2018-09-30T10:58:53.630Z,52.30
2018-09-30T11:01:21.108Z,52.80
2018-09-30T11:03:48.464Z,52.60
2018-09-30T11:06:15.952Z,52.40
2018-09-30T11:08:43.369Z,51.30
2018-09-30T11:11:10.740Z,52.00
2018-09-30T11:13:38.238Z,51.70
2018-09-30T11:16:05.968Z,52.10
2018-09-30T11:18:33.338Z,51.50
2018-09-30T11:21:00.782Z,51.20
2018-09-30T11:23:28.297Z,50.50
2018-09-30T11:25:55.745Z,49.90
2018-09-30T11:28:23.155Z,50.40
2018-09-30T11:30:50.623Z,48.10
2018-09-30T11:33:18.036Z,47.70
2018-09-30T11:35:45.476Z,48.50
2018-09-30T11:38:12.929Z,48.50
2018-09-30T11:40:40.379Z,47.70
2018-09-30T11:43:07.775Z,47.10
2018-09-30T11:45:35.191Z,47.50
2018-09-30T11:48:02.574Z,47.10
2018-09-30T11:50:30.030Z,47.70
2018-09-30T11:52:57.468Z,47.50
2018-09-30T11:55:24.812Z,46.50
2018-09-30T11:57:52.293Z,47.60
2018-09-30T12:00:19.664Z,46.10
2018-09-30T12:02:47.187Z,49.10
2018-09-30T12:05:14.592Z,47.40
2018-09-30T12:07:41.994Z,47.90
2018-09-30T12:10:09.413Z,46.80
2018-09-30T12:12:36.886Z,47.80
2018-09-30T12:15:04.294Z,47.40
2018-09-30T12:17:31.676Z,46.80
2018-09-30T12:19:59.132Z,47.20
2018-09-30T12:22:26.640Z,47.70
2018-09-30T12:24:54.058Z,44.70
2018-09-30T12:27:21.512Z,44.40
2018-09-30T12:29:48.959Z,45.10
2018-09-30T12:32:16.404Z,45.10
2018-09-30T12:34:43.977Z,47.10
2018-09-30T12:37:11.389Z,46.30
2018-09-30T12:39:38.773Z,45.80
2018-09-30T12:42:06.195Z,46.40
2018-09-30T12:44:33.594Z,45.90
2018-09-30T12:47:00.944Z,43.60
2018-09-30T12:49:28.388Z,43.10
2018-09-30T12:51:55.831Z,42.00
2018-09-30T12:54:23.272Z,42.10
2018-09-30T12:56:50.716Z,41.50
2018-09-30T12:59:18.188Z,41.00
2018-09-30T13:01:45.636Z,39.90
2018-09-30T13:04:13.053Z,40.00
2018-09-30T13:06:40.508Z,39.70
2018-09-30T13:09:08.709Z,39.00
2018-09-30T13:11:36.156Z,38.80
2018-09-30T13:14:03.647Z,39.00
2018-09-30T13:16:31.052Z,37.70
2018-09-30T13:18:58.476Z,38.70
2018-09-30T13:21:25.865Z,38.30
2018-09-30T13:23:53.272Z,38.90
2018-09-30T13:26:20.725Z,38.40
2018-09-30T13:28:48.189Z,38.50
2018-09-30T13:31:15.698Z,38.40
2018-09-30T13:33:43.028Z,39.00
2018-09-30T13:36:10.570Z,38.30
2018-09-30T13:38:38.046Z,37.40
2018-09-30T13:41:05.603Z,38.60
2018-09-30T13:43:32.973Z,38.80
2018-09-30T13:46:00.408Z,37.80
2018-09-30T13:48:27.858Z,37.90
2018-09-30T13:50:55.215Z,38.90
2018-09-30T13:53:22.561Z,38.40
2018-09-30T13:55:50.133Z,38.80
2018-09-30T13:58:17.728Z,38.20
2018-09-30T14:00:45.122Z,38.40
2018-09-30T14:03:12.526Z,38.50
2018-09-30T14:05:39.886Z,38.90
2018-09-30T14:08:07.388Z,38.30
2018-09-30T14:10:34.735Z,37.70
2018-09-30T14:13:02.204Z,39.00
2018-09-30T14:15:29.670Z,37.80
2018-09-30T14:17:57.059Z,37.00
2018-09-30T14:20:24.457Z,37.20
2018-09-30T14:22:51.846Z,37.70
2018-09-30T14:25:19.252Z,37.50
2018-09-30T14:27:46.643Z,37.90
2018-09-30T14:30:14.092Z,37.40
2018-09-30T14:32:41.429Z,38.30
2018-09-30T14:35:08.837Z,38.20
2018-09-30T14:37:36.426Z,38.90
2018-09-30T14:40:03.802Z,37.40
2018-09-30T14:42:31.256Z,37.40
2018-09-30T14:45:05.630Z,37.30
2018-09-30T14:47:33.068Z,37.40
2018-09-30T14:50:00.480Z,36.40
2018-09-30T14:52:27.852Z,38.30
2018-09-30T14:54:55.324Z,37.10
2018-09-30T14:57:22.819Z,36.60
2018-09-30T14:59:50.235Z,37.10
2018-09-30T15:02:17.658Z,37.30
2018-09-30T15:04:45.152Z,36.40
2018-09-30T15:07:12.594Z,38.10
2018-09-30T15:09:40.031Z,37.20
2018-09-30T15:12:07.439Z,37.70
2018-09-30T15:14:34.786Z,39.20
2018-09-30T15:17:02.167Z,38.00
2018-09-30T15:19:29.621Z,38.10
2018-09-30T15:21:57.050Z,38.50
2018-09-30T15:24:24.446Z,39.30
2018-09-30T15:26:51.951Z,39.70
2018-09-30T15:29:19.340Z,39.90
2018-09-30T15:31:46.794Z,39.80
2018-09-30T15:34:14.359Z,40.10
2018-09-30T15:36:41.726Z,40.50
2018-09-30T15:39:10.613Z,41.10
2018-09-30T15:41:38.260Z,41.70
2018-09-30T15:44:05.841Z,41.80
2018-09-30T15:46:33.242Z,42.00
2018-09-30T15:49:00.623Z,42.70
2018-09-30T15:51:28.080Z,43.30
2018-09-30T15:53:55.446Z,43.20
2018-09-30T15:56:22.892Z,43.60
2018-09-30T15:58:50.270Z,43.90
2018-09-30T16:01:17.800Z,44.20
2018-09-30T16:03:45.197Z,44.60
2018-09-30T16:06:12.780Z,44.60
2018-09-30T16:08:46.998Z,44.70
2018-09-30T16:11:14.401Z,45.20
2018-09-30T16:13:41.809Z,44.90
2018-09-30T16:16:09.265Z,44.90
2018-09-30T16:18:36.780Z,45.40
2018-09-30T16:21:04.343Z,46.20
2018-09-30T16:23:31.701Z,47.00
2018-09-30T16:25:59.141Z,47.00
2018-09-30T16:28:26.536Z,48.10
2018-09-30T16:30:53.928Z,48.10
2018-09-30T16:33:21.427Z,48.30
2018-09-30T16:35:48.932Z,48.20
2018-09-30T16:38:16.373Z,47.70
2018-09-30T16:40:43.820Z,47.30
2018-09-30T16:43:11.292Z,47.00
2018-09-30T16:45:38.692Z,46.90
2018-09-30T16:48:06.196Z,46.90
2018-09-30T16:50:33.656Z,46.90
2018-09-30T16:53:01.023Z,46.90
2018-09-30T16:55:28.477Z,46.90
2018-09-30T16:57:55.982Z,46.80
2018-09-30T17:00:23.448Z,47.20
2018-09-30T17:02:50.850Z,47.60
2018-09-30T17:05:18.273Z,48.20
2018-09-30T17:07:45.666Z,49.20
2018-09-30T17:10:13.245Z,49.70
2018-09-30T17:12:40.690Z,50.00
2018-09-30T17:15:08.220Z,50.30
2018-09-30T17:17:35.584Z,50.40
2018-09-30T17:20:03.069Z,50.10
2018-09-30T17:22:30.549Z,50.40
2018-09-30T17:24:57.959Z,50.70
2018-09-30T17:27:25.400Z,50.40
2018-09-30T17:29:52.925Z,50.30
2018-09-30T17:32:20.367Z,49.60
2018-09-30T17:34:47.778Z,49.80
2018-09-30T17:37:15.284Z,50.30
2018-09-30T17:39:42.756Z,50.10
2018-09-30T17:42:10.149Z,50.90
2018-09-30T17:44:37.948Z,51.60
2018-09-30T17:47:05.570Z,52.10
2018-09-30T17:49:39.660Z,52.10
2018-09-30T17:52:07.045Z,52.20
2018-09-30T17:54:34.508Z,52.80
2018-09-30T17:57:02.008Z,53.10
2018-09-30T17:59:29.430Z,53.30
2018-09-30T18:01:57.931Z,53.50
2018-09-30T18:04:25.381Z,53.30
2018-09-30T18:06:52.852Z,53.70
2018-09-30T18:09:20.289Z,53.90
2018-09-30T18:11:47.773Z,53.80
2018-09-30T18:14:15.144Z,53.80
2018-09-30T18:16:42.575Z,54.30
2018-09-30T18:19:10.085Z,54.00
2018-09-30T18:21:37.472Z,53.90
2018-09-30T18:24:05.130Z,53.90
2018-09-30T18:26:32.564Z,53.90
2018-09-30T18:29:00.057Z,54.30
2018-09-30T18:31:27.792Z,54.50
2018-09-30T18:33:55.253Z,54.30
2018-09-30T18:36:22.626Z,54.40
2018-09-30T18:38:49.968Z,54.30
2018-09-30T18:41:17.360Z,54.50
2018-09-30T18:43:44.759Z,54.90
2018-09-30T18:46:12.289Z,55.10
2018-09-30T18:48:39.692Z,55.20
2018-09-30T18:51:07.121Z,55.30
2018-09-30T18:53:34.567Z,55.40
2018-09-30T18:56:02.137Z,55.30
2018-09-30T18:58:29.476Z,55.60
2018-09-30T19:00:57.006Z,55.50
2018-09-30T19:03:24.490Z,55.50
2018-09-30T19:05:51.894Z,55.70
2018-09-30T19:08:19.276Z,56.30
2018-09-30T19:10:46.782Z,56.10
2018-09-30T19:13:14.230Z,56.10
2018-09-30T19:15:41.976Z,56.00
2018-09-30T19:18:09.351Z,56.00
2018-09-30T19:20:36.743Z,56.20
2018-09-30T19:23:04.159Z,56.50
2018-09-30T19:25:31.644Z,56.70
2018-09-30T19:27:59.040Z,56.60
2018-09-30T19:30:26.535Z,56.70
2018-09-30T19:32:54.254Z,56.90
2018-09-30T19:35:22.313Z,56.90
2018-09-30T19:37:49.747Z,57.00
2018-09-30T19:40:17.372Z,57.10
2018-09-30T19:42:44.869Z,57.20
2018-09-30T19:45:12.350Z,57.30
2018-09-30T19:47:39.792Z,57.50
2018-09-30T19:50:08.568Z,58.40
2018-09-30T19:52:36.097Z,57.90
2018-09-30T19:55:03.786Z,58.00
2018-09-30T19:57:31.197Z,58.00
2018-09-30T19:59:58.683Z,58.30
2018-09-30T20:02:26.016Z,58.60
2018-09-30T20:04:53.421Z,59.00
2018-09-30T20:07:20.825Z,58.80
2018-09-30T20:09:48.238Z,59.00
2018-09-30T20:12:15.725Z,59.10
2018-09-30T20:14:43.166Z,59.10
2018-09-30T20:17:10.518Z,59.00
2018-09-30T20:19:37.985Z,59.30
2018-09-30T20:22:07.299Z,59.60
2018-09-30T20:24:34.811Z,59.70
2018-09-30T20:27:02.302Z,59.50
2018-09-30T20:29:29.727Z,59.90
2018-09-30T20:31:57.124Z,59.80
2018-09-30T20:34:24.545Z,60.20
2018-09-30T20:36:51.979Z,59.80
2018-09-30T20:39:19.480Z,60.00
2018-09-30T20:41:46.879Z,59.90
2018-09-30T20:44:14.331Z,60.20
2018-09-30T20:46:41.820Z,60.20
2018-09-30T20:49:09.269Z,60.50
2018-09-30T20:51:36.646Z,60.70
2018-09-30T20:54:04.105Z,60.80
2018-09-30T20:56:31.554Z,60.70
2018-09-30T20:58:59.020Z,60.90
2018-09-30T21:01:26.435Z,60.90
2018-09-30T21:03:53.868Z,61.10
2018-09-30T21:06:23.395Z,61.00
2018-09-30T21:08:50.864Z,61.40
2018-09-30T21:11:18.388Z,61.40
2018-09-30T21:13:45.849Z,61.50
2018-09-30T21:16:13.792Z,61.30
2018-09-30T21:18:41.300Z,61.80
2018-09-30T21:21:08.769Z,61.60
2018-09-30T21:23:36.128Z,62.30
2018-09-30T21:26:03.668Z,62.10
2018-09-30T21:28:31.044Z,62.30
2018-09-30T21:30:58.514Z,62.60
2018-09-30T21:33:25.925Z,62.50
2018-09-30T21:35:53.267Z,63.10
2018-09-30T21:38:20.673Z,62.90
2018-09-30T21:40:48.184Z,63.20
2018-09-30T21:43:16.571Z,63.30
2018-09-30T21:45:44.318Z,63.30
2018-09-30T21:48:12.789Z,63.50
2018-09-30T21:50:40.232Z,63.80
2018-09-30T21:53:07.641Z,63.90
2018-09-30T21:55:34.962Z,63.80
2018-09-30T21:58:02.418Z,63.60
2018-09-30T22:00:35.739Z,63.10
2018-09-30T22:03:03.298Z,63.50
2018-09-30T22:05:31.272Z,63.00
2018-09-30T22:07:58.891Z,63.20
2018-09-30T22:10:26.436Z,63.10
2018-09-30T22:12:54.336Z,63.10
2018-09-30T22:15:21.767Z,63.60
2018-09-30T22:17:49.225Z,63.60
2018-09-30T22:20:16.684Z,63.70
2018-09-30T22:22:44.181Z,63.90
2018-09-30T22:25:11.588Z,64.60
2018-09-30T22:27:39.106Z,64.10
2018-09-30T22:30:06.521Z,64.20
2018-09-30T22:32:34.069Z,64.30
2018-09-30T22:35:01.498Z,64.50
2018-09-30T22:37:28.955Z,64.40
2018-09-30T22:39:56.476Z,64.30
2018-09-30T22:42:23.916Z,64.30
2018-09-30T22:44:51.474Z,64.70
2018-09-30T22:47:18.985Z,64.90
2018-09-30T22:49:46.414Z,64.70
2018-09-30T22:52:13.841Z,64.70
2018-09-30T22:54:41.277Z,64.10
2018-09-30T22:57:08.884Z,64.10
2018-09-30T22:59:36.606Z,63.90
2018-09-30T23:02:04.186Z,64.20
2018-09-30T23:04:31.664Z,64.40
2018-09-30T23:06:59.073Z,63.90
2018-09-30T23:09:26.547Z,63.70
2018-09-30T23:11:54.274Z,63.00
2018-09-30T23:14:21.630Z,63.00
2018-09-30T23:16:49.078Z,63.40
2018-09-30T23:19:16.587Z,63.30
2018-09-30T23:21:44.049Z,63.20
2018-09-30T23:24:11.516Z,63.40
2018-09-30T23:26:38.925Z,63.00
2018-09-30T23:29:06.293Z,62.80
2018-09-30T23:31:33.736Z,62.80
2018-09-30T23:34:01.149Z,62.40
2018-09-30T23:36:28.486Z,61.60
2018-09-30T23:38:55.974Z,61.70
2018-09-30T23:41:23.407Z,62.10
2018-09-30T23:43:50.880Z,61.80
2018-09-30T23:46:18.227Z,62.60
2018-09-30T23:48:45.579Z,61.60
2018-09-30T23:51:13.016Z,62.00
2018-09-30T23:53:40.468Z,60.60
2018-09-30T23:56:07.936Z,62.10
2018-09-30T23:58:35.390Z,63.00
